sensor_id;sensor_type;location;lat;lon;timestamp;P1;durP1;ratioP1;P2;durP2;ratioP2
68449;SDS011;67758;39.572;2.652;2023-02-15T00:00:02;10.73;;;4.65;;
68449;SDS011;67758;39.572;2.652;2023-02-15T00:02:33;12.95;;;5.28;;
68449;SDS011;67758;39.572;2.652;2023-02-15T00:04:58;11.63;;;5.40;;
68449;SDS011;67758;39.572;2.652;2023-02-15T00:07:24;12.07;;;5.43;;
68449;SDS011;67758;39.572;2.652;2023-02-15T00:09:50;12.77;;;5.10;;
68449;SDS011;67758;39.572;2.652;2023-02-15T00:12:15;12.87;;;5.77;;
68449;SDS011;67758;39.572;2.652;2023-02-15T00:14:41;10.82;;;4.47;;
68449;SDS011;67758;39.572;2.652;2023-02-15T00:17:07;11.33;;;4.47;;
68449;SDS011;67758;39.572;2.652;2023-02-15T00:19:33;12.23;;;4.60;;
68449;SDS011;67758;39.572;2.652;2023-02-15T00:22:04;9.93;;;4.30;;
68449;SDS011;67758;39.572;2.652;2023-02-15T00:24:30;9.33;;;4.50;;
68449;SDS011;67758;39.572;2.652;2023-02-15T00:26:56;10.27;;;4.60;;
68449;SDS011;67758;39.572;2.652;2023-02-15T00:29:21;10.20;;;4.23;;
68449;SDS011;67758;39.572;2.652;2023-02-15T00:31:47;11.15;;;4.63;;
68449;SDS011;67758;39.572;2.652;2023-02-15T00:34:17;11.03;;;4.87;;
68449;SDS011;67758;39.572;2.652;2023-02-15T00:36:44;11.93;;;4.50;;
68449;SDS011;67758;39.572;2.652;2023-02-15T00:39:11;12.48;;;4.78;;
68449;SDS011;67758;39.572;2.652;2023-02-15T00:41:36;14.00;;;4.53;;
68449;SDS011;67758;39.572;2.652;2023-02-15T00:44:02;11.87;;;4.40;;
68449;SDS011;67758;39.572;2.652;2023-02-15T00:46:29;11.98;;;4.55;;
68449;SDS011;67758;39.572;2.652;2023-02-15T00:48:54;11.40;;;3.97;;
68449;SDS011;67758;39.572;2.652;2023-02-15T00:51:21;11.88;;;4.50;;
68449;SDS011;67758;39.572;2.652;2023-02-15T00:53:47;11.87;;;4.83;;
68449;SDS011;67758;39.572;2.652;2023-02-15T00:56:13;10.32;;;4.30;;
68449;SDS011;67758;39.572;2.652;2023-02-15T00:58:38;14.00;;;4.60;;
68449;SDS011;67758;39.572;2.652;2023-02-15T01:01:08;9.10;;;3.88;;
68449;SDS011;67758;39.572;2.652;2023-02-15T01:03:38;11.95;;;4.75;;
68449;SDS011;67758;39.572;2.652;2023-02-15T01:06:07;11.57;;;4.13;;
68449;SDS011;67758;39.572;2.652;2023-02-15T01:08:33;9.87;;;4.10;;
68449;SDS011;67758;39.572;2.652;2023-02-15T01:11:03;8.80;;;3.65;;
68449;SDS011;67758;39.572;2.652;2023-02-15T01:13:34;9.38;;;3.40;;
68449;SDS011;67758;39.572;2.652;2023-02-15T01:16:00;8.75;;;3.40;;
68449;SDS011;67758;39.572;2.652;2023-02-15T01:18:26;11.70;;;3.30;;
68449;SDS011;67758;39.572;2.652;2023-02-15T01:20:52;8.50;;;3.33;;
68449;SDS011;67758;39.572;2.652;2023-02-15T01:23:18;9.80;;;3.40;;
68449;SDS011;67758;39.572;2.652;2023-02-15T01:25:43;8.37;;;2.67;;
68449;SDS011;67758;39.572;2.652;2023-02-15T01:28:09;9.05;;;3.17;;
68449;SDS011;67758;39.572;2.652;2023-02-15T01:30:35;9.13;;;2.83;;
68449;SDS011;67758;39.572;2.652;2023-02-15T01:33:00;8.95;;;3.22;;
68449;SDS011;67758;39.572;2.652;2023-02-15T01:35:26;8.97;;;2.83;;
68449;SDS011;67758;39.572;2.652;2023-02-15T01:37:53;8.18;;;3.00;;
68449;SDS011;67758;39.572;2.652;2023-02-15T01:40:19;9.93;;;2.80;;
68449;SDS011;67758;39.572;2.652;2023-02-15T01:42:45;6.10;;;2.60;;
68449;SDS011;67758;39.572;2.652;2023-02-15T01:47:50;8.85;;;3.08;;
68449;SDS011;67758;39.572;2.652;2023-02-15T01:50:28;6.73;;;2.73;;
68449;SDS011;67758;39.572;2.652;2023-02-15T01:53:07;8.13;;;2.72;;
68449;SDS011;67758;39.572;2.652;2023-02-15T01:55:36;7.65;;;2.33;;
68449;SDS011;67758;39.572;2.652;2023-02-15T01:58:05;7.72;;;3.08;;
68449;SDS011;67758;39.572;2.652;2023-02-15T02:00:32;7.32;;;2.90;;
68449;SDS011;67758;39.572;2.652;2023-02-15T02:02:59;9.73;;;3.07;;
68449;SDS011;67758;39.572;2.652;2023-02-15T02:05:25;9.77;;;2.97;;
68449;SDS011;67758;39.572;2.652;2023-02-15T02:07:51;9.52;;;2.95;;
68449;SDS011;67758;39.572;2.652;2023-02-15T02:10:20;8.70;;;2.73;;
68449;SDS011;67758;39.572;2.652;2023-02-15T02:12:48;7.07;;;2.53;;
68449;SDS011;67758;39.572;2.652;2023-02-15T02:15:16;6.90;;;2.75;;
68449;SDS011;67758;39.572;2.652;2023-02-15T02:20:25;7.00;;;2.45;;
68449;SDS011;67758;39.572;2.652;2023-02-15T02:37:10;6.37;;;2.30;;
68449;SDS011;67758;39.572;2.652;2023-02-15T02:45:03;6.25;;;2.35;;
68449;SDS011;67758;39.572;2.652;2023-02-15T02:47:30;6.70;;;2.40;;
68449;SDS011;67758;39.572;2.652;2023-02-15T02:50:09;6.83;;;2.43;;
68449;SDS011;67758;39.572;2.652;2023-02-15T02:55:10;7.07;;;2.08;;
68449;SDS011;67758;39.572;2.652;2023-02-15T02:58:01;7.32;;;1.95;;
68449;SDS011;67758;39.572;2.652;2023-02-15T03:00:28;6.68;;;2.17;;
68449;SDS011;67758;39.572;2.652;2023-02-15T03:03:00;6.90;;;2.10;;
68449;SDS011;67758;39.572;2.652;2023-02-15T03:05:30;7.57;;;2.40;;
68449;SDS011;67758;39.572;2.652;2023-02-15T03:07:58;7.50;;;2.53;;
68449;SDS011;67758;39.572;2.652;2023-02-15T03:10:26;6.68;;;2.47;;
68449;SDS011;67758;39.572;2.652;2023-02-15T03:12:54;6.75;;;2.33;;
68449;SDS011;67758;39.572;2.652;2023-02-15T03:15:29;5.47;;;1.90;;
68449;SDS011;67758;39.572;2.652;2023-02-15T03:18:18;7.93;;;2.40;;
68449;SDS011;67758;39.572;2.652;2023-02-15T03:20:47;6.38;;;2.20;;
68449;SDS011;67758;39.572;2.652;2023-02-15T03:23:16;7.20;;;2.15;;
68449;SDS011;67758;39.572;2.652;2023-02-15T03:25:46;6.57;;;2.10;;
68449;SDS011;67758;39.572;2.652;2023-02-15T03:28:25;7.33;;;2.13;;
68449;SDS011;67758;39.572;2.652;2023-02-15T03:30:58;7.18;;;2.20;;
68449;SDS011;67758;39.572;2.652;2023-02-15T03:33:26;7.57;;;2.60;;
68449;SDS011;67758;39.572;2.652;2023-02-15T03:36:18;6.85;;;2.10;;
68449;SDS011;67758;39.572;2.652;2023-02-15T03:39:12;8.30;;;2.10;;
68449;SDS011;67758;39.572;2.652;2023-02-15T03:42:22;6.20;;;2.00;;
68449;SDS011;67758;39.572;2.652;2023-02-15T03:44:54;6.32;;;2.10;;
68449;SDS011;67758;39.572;2.652;2023-02-15T03:47:24;6.80;;;2.40;;
68449;SDS011;67758;39.572;2.652;2023-02-15T03:52:59;6.40;;;2.45;;
68449;SDS011;67758;39.572;2.652;2023-02-15T03:55:28;6.63;;;2.17;;
68449;SDS011;67758;39.572;2.652;2023-02-15T03:57:54;6.70;;;2.10;;
68449;SDS011;67758;39.572;2.652;2023-02-15T04:00:40;7.03;;;2.33;;
68449;SDS011;67758;39.572;2.652;2023-02-15T04:03:33;7.03;;;2.20;;
68449;SDS011;67758;39.572;2.652;2023-02-15T04:06:04;7.90;;;2.42;;
68449;SDS011;67758;39.572;2.652;2023-02-15T04:08:30;8.70;;;2.00;;
68449;SDS011;67758;39.572;2.652;2023-02-15T04:11:14;5.75;;;2.00;;
68449;SDS011;67758;39.572;2.652;2023-02-15T04:13:40;7.07;;;2.20;;
68449;SDS011;67758;39.572;2.652;2023-02-15T04:16:05;5.53;;;2.00;;
68449;SDS011;67758;39.572;2.652;2023-02-15T04:18:35;6.45;;;2.22;;
68449;SDS011;67758;39.572;2.652;2023-02-15T04:21:24;8.30;;;2.30;;
68449;SDS011;67758;39.572;2.652;2023-02-15T04:24:10;6.90;;;2.08;;
68449;SDS011;67758;39.572;2.652;2023-02-15T04:26:54;7.65;;;2.20;;
68449;SDS011;67758;39.572;2.652;2023-02-15T04:29:23;7.15;;;2.03;;
68449;SDS011;67758;39.572;2.652;2023-02-15T04:31:50;5.70;;;2.08;;
68449;SDS011;67758;39.572;2.652;2023-02-15T04:34:17;10.23;;;2.10;;
68449;SDS011;67758;39.572;2.652;2023-02-15T04:36:43;8.20;;;2.55;;
68449;SDS011;67758;39.572;2.652;2023-02-15T04:39:09;6.78;;;2.47;;
68449;SDS011;67758;39.572;2.652;2023-02-15T04:41:38;7.22;;;2.25;;
68449;SDS011;67758;39.572;2.652;2023-02-15T04:44:03;7.77;;;2.40;;
68449;SDS011;67758;39.572;2.652;2023-02-15T04:46:29;8.43;;;2.30;;
68449;SDS011;67758;39.572;2.652;2023-02-15T04:48:56;6.23;;;2.43;;
68449;SDS011;67758;39.572;2.652;2023-02-15T04:51:21;7.18;;;2.40;;
68449;SDS011;67758;39.572;2.652;2023-02-15T04:53:47;8.10;;;2.53;;
68449;SDS011;67758;39.572;2.652;2023-02-15T04:56:13;7.93;;;2.30;;
68449;SDS011;67758;39.572;2.652;2023-02-15T04:58:38;6.00;;;2.47;;
68449;SDS011;67758;39.572;2.652;2023-02-15T05:01:09;6.88;;;2.53;;
68449;SDS011;67758;39.572;2.652;2023-02-15T05:03:35;8.55;;;2.58;;
68449;SDS011;67758;39.572;2.652;2023-02-15T05:06:01;6.63;;;2.00;;
68449;SDS011;67758;39.572;2.652;2023-02-15T05:08:26;9.00;;;2.90;;
68449;SDS011;67758;39.572;2.652;2023-02-15T05:10:52;7.20;;;2.30;;
68449;SDS011;67758;39.572;2.652;2023-02-15T05:13:17;7.47;;;2.50;;
68449;SDS011;67758;39.572;2.652;2023-02-15T05:15:49;5.73;;;2.40;;
68449;SDS011;67758;39.572;2.652;2023-02-15T05:18:16;6.40;;;2.53;;
68449;SDS011;67758;39.572;2.652;2023-02-15T05:20:43;7.25;;;2.63;;
68449;SDS011;67758;39.572;2.652;2023-02-15T05:23:08;7.90;;;2.60;;
68449;SDS011;67758;39.572;2.652;2023-02-15T05:25:34;7.40;;;2.45;;
68449;SDS011;67758;39.572;2.652;2023-02-15T05:28:18;7.78;;;2.15;;
68449;SDS011;67758;39.572;2.652;2023-02-15T05:30:47;6.43;;;2.03;;
68449;SDS011;67758;39.572;2.652;2023-02-15T05:33:14;9.27;;;2.90;;
68449;SDS011;67758;39.572;2.652;2023-02-15T05:35:40;8.50;;;2.80;;
68449;SDS011;67758;39.572;2.652;2023-02-15T05:38:05;6.77;;;2.50;;
68449;SDS011;67758;39.572;2.652;2023-02-15T05:40:31;7.05;;;2.33;;
68449;SDS011;67758;39.572;2.652;2023-02-15T05:42:56;7.73;;;2.50;;
68449;SDS011;67758;39.572;2.652;2023-02-15T05:45:22;7.10;;;2.78;;
68449;SDS011;67758;39.572;2.652;2023-02-15T05:47:48;7.77;;;2.47;;
68449;SDS011;67758;39.572;2.652;2023-02-15T05:50:14;9.73;;;2.83;;
68449;SDS011;67758;39.572;2.652;2023-02-15T05:52:39;8.20;;;2.37;;
68449;SDS011;67758;39.572;2.652;2023-02-15T05:55:05;9.38;;;2.60;;
68449;SDS011;67758;39.572;2.652;2023-02-15T05:57:33;7.25;;;2.42;;
68449;SDS011;67758;39.572;2.652;2023-02-15T06:00:00;8.97;;;2.47;;
68449;SDS011;67758;39.572;2.652;2023-02-15T06:02:26;7.68;;;2.60;;
68449;SDS011;67758;39.572;2.652;2023-02-15T06:04:52;8.63;;;2.40;;
68449;SDS011;67758;39.572;2.652;2023-02-15T06:07:17;7.17;;;2.60;;
68449;SDS011;67758;39.572;2.652;2023-02-15T06:09:43;7.93;;;2.58;;
68449;SDS011;67758;39.572;2.652;2023-02-15T06:12:09;10.50;;;2.73;;
68449;SDS011;67758;39.572;2.652;2023-02-15T06:14:34;8.57;;;3.13;;
68449;SDS011;67758;39.572;2.652;2023-02-15T06:17:00;10.50;;;3.28;;
68449;SDS011;67758;39.572;2.652;2023-02-15T06:19:25;7.80;;;2.73;;
68449;SDS011;67758;39.572;2.652;2023-02-15T06:21:51;12.00;;;2.95;;
68449;SDS011;67758;39.572;2.652;2023-02-15T06:24:17;10.20;;;3.10;;
68449;SDS011;67758;39.572;2.652;2023-02-15T06:26:42;9.23;;;3.33;;
68449;SDS011;67758;39.572;2.652;2023-02-15T06:29:08;8.77;;;3.27;;
68449;SDS011;67758;39.572;2.652;2023-02-15T06:31:33;9.63;;;3.42;;
68449;SDS011;67758;39.572;2.652;2023-02-15T06:33:59;8.47;;;3.03;;
68449;SDS011;67758;39.572;2.652;2023-02-15T06:36:28;8.85;;;3.72;;
68449;SDS011;67758;39.572;2.652;2023-02-15T06:38:54;11.73;;;3.67;;
68449;SDS011;67758;39.572;2.652;2023-02-15T06:41:20;9.53;;;3.57;;
68449;SDS011;67758;39.572;2.652;2023-02-15T06:43:46;11.02;;;3.30;;
68449;SDS011;67758;39.572;2.652;2023-02-15T06:46:12;9.80;;;3.15;;
68449;SDS011;67758;39.572;2.652;2023-02-15T06:48:37;8.63;;;3.00;;
68449;SDS011;67758;39.572;2.652;2023-02-15T06:51:03;10.03;;;3.37;;
68449;SDS011;67758;39.572;2.652;2023-02-15T06:53:29;10.20;;;3.20;;
68449;SDS011;67758;39.572;2.652;2023-02-15T06:56:01;9.50;;;3.13;;
68449;SDS011;67758;39.572;2.652;2023-02-15T06:58:31;7.60;;;3.42;;
68449;SDS011;67758;39.572;2.652;2023-02-15T07:00:59;10.60;;;3.70;;
68449;SDS011;67758;39.572;2.652;2023-02-15T07:03:25;10.68;;;2.83;;
68449;SDS011;67758;39.572;2.652;2023-02-15T07:05:58;11.03;;;3.60;;
68449;SDS011;67758;39.572;2.652;2023-02-15T07:08:25;8.88;;;3.00;;
68449;SDS011;67758;39.572;2.652;2023-02-15T07:10:52;9.15;;;3.10;;
68449;SDS011;67758;39.572;2.652;2023-02-15T07:13:19;11.15;;;2.90;;
68449;SDS011;67758;39.572;2.652;2023-02-15T07:15:45;8.82;;;2.53;;
68449;SDS011;67758;39.572;2.652;2023-02-15T07:18:12;11.27;;;3.27;;
68449;SDS011;67758;39.572;2.652;2023-02-15T07:20:38;7.90;;;2.80;;
68449;SDS011;67758;39.572;2.652;2023-02-15T07:23:06;13.10;;;3.45;;
68449;SDS011;67758;39.572;2.652;2023-02-15T07:25:33;8.02;;;3.22;;
68449;SDS011;67758;39.572;2.652;2023-02-15T07:28:00;8.80;;;2.97;;
68449;SDS011;67758;39.572;2.652;2023-02-15T07:30:28;8.00;;;2.80;;
68449;SDS011;67758;39.572;2.652;2023-02-15T07:32:57;10.88;;;3.40;;
68449;SDS011;67758;39.572;2.652;2023-02-15T07:35:48;10.25;;;3.10;;
68449;SDS011;67758;39.572;2.652;2023-02-15T07:38:14;10.18;;;3.42;;
68449;SDS011;67758;39.572;2.652;2023-02-15T07:40:42;8.43;;;3.22;;
68449;SDS011;67758;39.572;2.652;2023-02-15T07:43:08;7.77;;;3.10;;
68449;SDS011;67758;39.572;2.652;2023-02-15T07:45:34;11.73;;;3.17;;
68449;SDS011;67758;39.572;2.652;2023-02-15T07:48:00;10.88;;;4.13;;
68449;SDS011;67758;39.572;2.652;2023-02-15T07:50:27;9.82;;;3.17;;
68449;SDS011;67758;39.572;2.652;2023-02-15T07:52:53;12.27;;;4.00;;
68449;SDS011;67758;39.572;2.652;2023-02-15T07:55:19;14.38;;;3.75;;
68449;SDS011;67758;39.572;2.652;2023-02-15T07:57:45;14.60;;;3.63;;
68449;SDS011;67758;39.572;2.652;2023-02-15T08:00:13;11.10;;;4.40;;
68449;SDS011;67758;39.572;2.652;2023-02-15T08:02:41;10.07;;;3.85;;
68449;SDS011;67758;39.572;2.652;2023-02-15T08:05:07;11.88;;;5.07;;
68449;SDS011;67758;39.572;2.652;2023-02-15T08:07:38;16.20;;;5.07;;
68449;SDS011;67758;39.572;2.652;2023-02-15T08:10:03;12.77;;;4.95;;
68449;SDS011;67758;39.572;2.652;2023-02-15T08:12:37;13.70;;;5.47;;
68449;SDS011;67758;39.572;2.652;2023-02-15T08:15:03;19.57;;;6.07;;
68449;SDS011;67758;39.572;2.652;2023-02-15T08:17:29;17.08;;;6.07;;
68449;SDS011;67758;39.572;2.652;2023-02-15T08:19:55;16.43;;;6.20;;
68449;SDS011;67758;39.572;2.652;2023-02-15T08:22:20;15.07;;;6.47;;
68449;SDS011;67758;39.572;2.652;2023-02-15T08:24:46;17.08;;;6.53;;
68449;SDS011;67758;39.572;2.652;2023-02-15T08:27:11;15.67;;;7.07;;
68449;SDS011;67758;39.572;2.652;2023-02-15T08:29:38;15.00;;;6.78;;
68449;SDS011;67758;39.572;2.652;2023-02-15T08:32:13;16.05;;;6.40;;
68449;SDS011;67758;39.572;2.652;2023-02-15T08:34:40;12.80;;;6.00;;
68449;SDS011;67758;39.572;2.652;2023-02-15T08:37:07;18.15;;;6.78;;
68449;SDS011;67758;39.572;2.652;2023-02-15T08:39:33;15.45;;;6.30;;
68449;SDS011;67758;39.572;2.652;2023-02-15T08:41:58;12.40;;;5.88;;
68449;SDS011;67758;39.572;2.652;2023-02-15T08:44:24;14.03;;;5.90;;
68449;SDS011;67758;39.572;2.652;2023-02-15T08:46:50;17.60;;;6.25;;
68449;SDS011;67758;39.572;2.652;2023-02-15T08:49:17;14.00;;;6.20;;
68449;SDS011;67758;39.572;2.652;2023-02-15T08:51:44;15.20;;;6.20;;
68449;SDS011;67758;39.572;2.652;2023-02-15T08:54:15;13.55;;;6.20;;
68449;SDS011;67758;39.572;2.652;2023-02-15T08:56:44;15.60;;;6.40;;
68449;SDS011;67758;39.572;2.652;2023-02-15T08:59:14;15.77;;;5.83;;
68449;SDS011;67758;39.572;2.652;2023-02-15T09:01:45;19.02;;;5.88;;
68449;SDS011;67758;39.572;2.652;2023-02-15T09:04:11;11.90;;;5.75;;
68449;SDS011;67758;39.572;2.652;2023-02-15T09:06:38;13.75;;;5.55;;
68449;SDS011;67758;39.572;2.652;2023-02-15T09:09:05;15.88;;;6.18;;
68449;SDS011;67758;39.572;2.652;2023-02-15T09:11:36;17.13;;;6.10;;
68449;SDS011;67758;39.572;2.652;2023-02-15T09:14:07;15.45;;;6.28;;
68449;SDS011;67758;39.572;2.652;2023-02-15T09:16:35;18.02;;;5.57;;
68449;SDS011;67758;39.572;2.652;2023-02-15T09:19:02;19.15;;;5.85;;
68449;SDS011;67758;39.572;2.652;2023-02-15T09:21:33;14.13;;;6.05;;
68449;SDS011;67758;39.572;2.652;2023-02-15T09:24:02;19.83;;;7.90;;
68449;SDS011;67758;39.572;2.652;2023-02-15T09:26:33;16.63;;;6.93;;
68449;SDS011;67758;39.572;2.652;2023-02-15T09:29:00;15.80;;;7.13;;
68449;SDS011;67758;39.572;2.652;2023-02-15T09:31:32;13.95;;;7.60;;
68449;SDS011;67758;39.572;2.652;2023-02-15T09:33:59;17.88;;;7.13;;
68449;SDS011;67758;39.572;2.652;2023-02-15T09:36:30;18.07;;;6.33;;
68449;SDS011;67758;39.572;2.652;2023-02-15T09:38:58;13.93;;;5.95;;
68449;SDS011;67758;39.572;2.652;2023-02-15T10:09:24;10.00;;;3.10;;
68449;SDS011;67758;39.572;2.652;2023-02-15T10:26:08;11.60;;;2.88;;
68449;SDS011;67758;39.572;2.652;2023-02-15T10:28:51;7.60;;;2.20;;
68449;SDS011;67758;39.572;2.652;2023-02-15T10:34:09;7.00;;;2.20;;
68449;SDS011;67758;39.572;2.652;2023-02-15T10:45:01;9.47;;;2.47;;
68449;SDS011;67758;39.572;2.652;2023-02-15T10:53:13;12.05;;;3.40;;
68449;SDS011;67758;39.572;2.652;2023-02-15T10:58:57;7.60;;;2.57;;
68449;SDS011;67758;39.572;2.652;2023-02-15T11:01:37;8.48;;;2.50;;
68449;SDS011;67758;39.572;2.652;2023-02-15T11:07:18;7.78;;;2.22;;
68449;SDS011;67758;39.572;2.652;2023-02-15T11:10:32;5.15;;;2.45;;
68449;SDS011;67758;39.572;2.652;2023-02-15T11:12:55;6.97;;;1.97;;
68449;SDS011;67758;39.572;2.652;2023-02-15T11:15:29;8.32;;;3.00;;
68449;SDS011;67758;39.572;2.652;2023-02-15T11:23:28;6.32;;;2.60;;
68449;SDS011;67758;39.572;2.652;2023-02-15T11:25:58;9.73;;;2.90;;
68449;SDS011;67758;39.572;2.652;2023-02-15T11:28:33;8.18;;;2.60;;
68449;SDS011;67758;39.572;2.652;2023-02-15T11:31:18;6.32;;;2.30;;
68449;SDS011;67758;39.572;2.652;2023-02-15T11:33:47;6.88;;;2.53;;
68449;SDS011;67758;39.572;2.652;2023-02-15T11:36:39;8.38;;;2.50;;
68449;SDS011;67758;39.572;2.652;2023-02-15T11:39:10;11.63;;;2.00;;
68449;SDS011;67758;39.572;2.652;2023-02-15T11:41:40;7.40;;;1.95;;
68449;SDS011;67758;39.572;2.652;2023-02-15T11:44:14;9.43;;;2.42;;
68449;SDS011;67758;39.572;2.652;2023-02-15T11:46:46;7.70;;;2.20;;
68449;SDS011;67758;39.572;2.652;2023-02-15T11:49:22;9.00;;;2.50;;
68449;SDS011;67758;39.572;2.652;2023-02-15T11:51:56;6.78;;;2.35;;
68449;SDS011;67758;39.572;2.652;2023-02-15T11:54:32;6.97;;;2.20;;
68449;SDS011;67758;39.572;2.652;2023-02-15T11:57:10;5.70;;;2.20;;
68449;SDS011;67758;39.572;2.652;2023-02-15T12:00:50;9.70;;;2.45;;
68449;SDS011;67758;39.572;2.652;2023-02-15T12:02:53;7.10;;;2.30;;
68449;SDS011;67758;39.572;2.652;2023-02-15T12:05:22;9.23;;;3.67;;
68449;SDS011;67758;39.572;2.652;2023-02-15T12:07:52;9.02;;;2.75;;
68449;SDS011;67758;39.572;2.652;2023-02-15T12:10:23;8.20;;;2.90;;
68449;SDS011;67758;39.572;2.652;2023-02-15T12:13:33;9.43;;;2.90;;
68449;SDS011;67758;39.572;2.652;2023-02-15T12:15:42;9.07;;;2.50;;
68449;SDS011;67758;39.572;2.652;2023-02-15T12:18:52;8.88;;;2.80;;
68449;SDS011;67758;39.572;2.652;2023-02-15T12:21:08;6.97;;;2.22;;
68449;SDS011;67758;39.572;2.652;2023-02-15T12:24:02;8.85;;;3.03;;
68449;SDS011;67758;39.572;2.652;2023-02-15T12:26:30;6.30;;;2.85;;
68449;SDS011;67758;39.572;2.652;2023-02-15T12:28:58;8.57;;;3.50;;
68449;SDS011;67758;39.572;2.652;2023-02-15T12:34:18;6.40;;;2.30;;
68449;SDS011;67758;39.572;2.652;2023-02-15T12:36:50;7.80;;;2.90;;
68449;SDS011;67758;39.572;2.652;2023-02-15T12:39:27;7.53;;;3.20;;
68449;SDS011;67758;39.572;2.652;2023-02-15T12:41:57;11.13;;;3.10;;
68449;SDS011;67758;39.572;2.652;2023-02-15T12:44:25;7.78;;;2.75;;
68449;SDS011;67758;39.572;2.652;2023-02-15T12:49:22;9.38;;;3.47;;
68449;SDS011;67758;39.572;2.652;2023-02-15T12:51:49;49.27;;;20.27;;
68449;SDS011;67758;39.572;2.652;2023-02-15T12:54:36;8.35;;;3.20;;
68449;SDS011;67758;39.572;2.652;2023-02-15T12:57:21;9.75;;;3.35;;
68449;SDS011;67758;39.572;2.652;2023-02-15T12:59:53;7.72;;;3.30;;
68449;SDS011;67758;39.572;2.652;2023-02-15T13:02:22;7.03;;;2.73;;
68449;SDS011;67758;39.572;2.652;2023-02-15T13:04:54;10.43;;;4.30;;
68449;SDS011;67758;39.572;2.652;2023-02-15T13:07:21;11.80;;;3.40;;
68449;SDS011;67758;39.572;2.652;2023-02-15T13:09:49;6.88;;;2.80;;
68449;SDS011;67758;39.572;2.652;2023-02-15T13:12:17;9.70;;;2.90;;
68449;SDS011;67758;39.572;2.652;2023-02-15T13:14:49;6.90;;;2.73;;
68449;SDS011;67758;39.572;2.652;2023-02-15T13:17:53;16.58;;;2.97;;
68449;SDS011;67758;39.572;2.652;2023-02-15T13:20:16;9.13;;;2.63;;
68449;SDS011;67758;39.572;2.652;2023-02-15T13:22:45;15.60;;;7.07;;
68449;SDS011;67758;39.572;2.652;2023-02-15T13:25:22;7.90;;;2.85;;
68449;SDS011;67758;39.572;2.652;2023-02-15T13:28:00;8.73;;;2.43;;
68449;SDS011;67758;39.572;2.652;2023-02-15T13:30:33;11.40;;;3.00;;
68449;SDS011;67758;39.572;2.652;2023-02-15T13:33:03;9.25;;;3.00;;
68449;SDS011;67758;39.572;2.652;2023-02-15T13:35:41;8.98;;;3.00;;
68449;SDS011;67758;39.572;2.652;2023-02-15T13:41:03;10.87;;;2.87;;
68449;SDS011;67758;39.572;2.652;2023-02-15T13:43:44;6.55;;;2.72;;
68449;SDS011;67758;39.572;2.652;2023-02-15T13:46:14;12.68;;;2.50;;
68449;SDS011;67758;39.572;2.652;2023-02-15T13:49:07;10.13;;;2.67;;
68449;SDS011;67758;39.572;2.652;2023-02-15T13:51:49;12.30;;;2.60;;
68449;SDS011;67758;39.572;2.652;2023-02-15T14:16:00;15.83;;;2.70;;
68449;SDS011;67758;39.572;2.652;2023-02-15T14:22:05;10.00;;;2.20;;
68449;SDS011;67758;39.572;2.652;2023-02-15T14:24:35;10.43;;;2.10;;
68449;SDS011;67758;39.572;2.652;2023-02-15T14:30:15;8.03;;;1.83;;
68449;SDS011;67758;39.572;2.652;2023-02-15T14:32:46;11.98;;;4.40;;
68449;SDS011;67758;39.572;2.652;2023-02-15T14:35:16;12.50;;;2.65;;
68449;SDS011;67758;39.572;2.652;2023-02-15T14:49:21;8.38;;;2.38;;
68449;SDS011;67758;39.572;2.652;2023-02-15T14:52:10;9.43;;;2.92;;
68449;SDS011;67758;39.572;2.652;2023-02-15T14:59:45;10.33;;;1.87;;
68449;SDS011;67758;39.572;2.652;2023-02-15T15:02:29;7.60;;;1.95;;
68449;SDS011;67758;39.572;2.652;2023-02-15T15:05:09;8.68;;;1.85;;
68449;SDS011;67758;39.572;2.652;2023-02-15T15:07:55;8.68;;;2.10;;
68449;SDS011;67758;39.572;2.652;2023-02-15T15:15:54;5.18;;;1.83;;
68449;SDS011;67758;39.572;2.652;2023-02-15T15:40:58;8.18;;;1.75;;
68449;SDS011;67758;39.572;2.652;2023-02-15T15:48:57;8.88;;;1.70;;
68449;SDS011;67758;39.572;2.652;2023-02-15T15:51:32;6.80;;;1.70;;
68449;SDS011;67758;39.572;2.652;2023-02-15T15:53:58;9.15;;;1.90;;
68449;SDS011;67758;39.572;2.652;2023-02-15T15:56:27;8.50;;;2.10;;
68449;SDS011;67758;39.572;2.652;2023-02-15T15:59:01;4.90;;;1.37;;
68449;SDS011;67758;39.572;2.652;2023-02-15T16:01:34;8.20;;;1.95;;
68449;SDS011;67758;39.572;2.652;2023-02-15T16:04:04;6.20;;;1.77;;
68449;SDS011;67758;39.572;2.652;2023-02-15T16:06:34;7.67;;;1.77;;
68449;SDS011;67758;39.572;2.652;2023-02-15T16:11:48;7.35;;;1.90;;
68449;SDS011;67758;39.572;2.652;2023-02-15T16:14:26;8.40;;;1.90;;
68449;SDS011;67758;39.572;2.652;2023-02-15T16:16:57;10.18;;;2.17;;
68449;SDS011;67758;39.572;2.652;2023-02-15T16:19:32;9.70;;;2.00;;
68449;SDS011;67758;39.572;2.652;2023-02-15T16:22:00;6.35;;;1.63;;
68449;SDS011;67758;39.572;2.652;2023-02-15T16:32:44;7.40;;;2.00;;
68449;SDS011;67758;39.572;2.652;2023-02-15T16:35:14;6.22;;;1.80;;
68449;SDS011;67758;39.572;2.652;2023-02-15T16:37:42;13.48;;;2.30;;
68449;SDS011;67758;39.572;2.652;2023-02-15T16:43:00;8.47;;;2.60;;
68449;SDS011;67758;39.572;2.652;2023-02-15T16:45:30;13.30;;;3.08;;
68449;SDS011;67758;39.572;2.652;2023-02-15T16:47:57;9.27;;;2.08;;
68449;SDS011;67758;39.572;2.652;2023-02-15T16:50:30;10.07;;;1.77;;
68449;SDS011;67758;39.572;2.652;2023-02-15T16:52:59;6.35;;;1.88;;
68449;SDS011;67758;39.572;2.652;2023-02-15T16:55:27;9.50;;;2.57;;
68449;SDS011;67758;39.572;2.652;2023-02-15T16:57:59;6.78;;;2.20;;
68449;SDS011;67758;39.572;2.652;2023-02-15T17:00:36;10.93;;;2.30;;
68449;SDS011;67758;39.572;2.652;2023-02-15T17:03:04;9.70;;;2.90;;
68449;SDS011;67758;39.572;2.652;2023-02-15T17:13:24;11.93;;;2.70;;
68449;SDS011;67758;39.572;2.652;2023-02-15T17:18:26;11.98;;;2.90;;
68449;SDS011;67758;39.572;2.652;2023-02-15T17:21:08;7.33;;;2.00;;
68449;SDS011;67758;39.572;2.652;2023-02-15T17:23:49;6.78;;;2.40;;
68449;SDS011;67758;39.572;2.652;2023-02-15T17:26:30;9.15;;;2.53;;
68449;SDS011;67758;39.572;2.652;2023-02-15T17:28:59;10.35;;;2.88;;
68449;SDS011;67758;39.572;2.652;2023-02-15T17:31:46;7.85;;;2.35;;
68449;SDS011;67758;39.572;2.652;2023-02-15T17:37:23;7.63;;;2.92;;
68449;SDS011;67758;39.572;2.652;2023-02-15T17:39:51;8.30;;;2.90;;
68449;SDS011;67758;39.572;2.652;2023-02-15T17:42:17;9.55;;;2.65;;
68449;SDS011;67758;39.572;2.652;2023-02-15T17:44:43;11.33;;;3.17;;
68449;SDS011;67758;39.572;2.652;2023-02-15T17:47:13;9.60;;;2.92;;
68449;SDS011;67758;39.572;2.652;2023-02-15T17:49:44;6.90;;;2.50;;
68449;SDS011;67758;39.572;2.652;2023-02-15T17:52:14;8.85;;;3.08;;
68449;SDS011;67758;39.572;2.652;2023-02-15T17:54:41;12.80;;;2.97;;
68449;SDS011;67758;39.572;2.652;2023-02-15T17:57:26;7.55;;;2.53;;
68449;SDS011;67758;39.572;2.652;2023-02-15T17:59:53;10.18;;;3.35;;
68449;SDS011;67758;39.572;2.652;2023-02-15T18:02:37;12.93;;;4.47;;
68449;SDS011;67758;39.572;2.652;2023-02-15T18:05:21;11.70;;;4.20;;
68449;SDS011;67758;39.572;2.652;2023-02-15T18:08:12;12.18;;;4.20;;
68449;SDS011;67758;39.572;2.652;2023-02-15T18:10:58;12.23;;;5.22;;
68449;SDS011;67758;39.572;2.652;2023-02-15T18:13:43;12.38;;;5.72;;
68449;SDS011;67758;39.572;2.652;2023-02-15T18:16:13;12.50;;;5.97;;
68449;SDS011;67758;39.572;2.652;2023-02-15T18:18:40;10.02;;;4.47;;
68449;SDS011;67758;39.572;2.652;2023-02-15T18:21:07;12.45;;;4.70;;
68449;SDS011;67758;39.572;2.652;2023-02-15T18:23:34;10.88;;;4.63;;
68449;SDS011;67758;39.572;2.652;2023-02-15T18:25:59;11.83;;;4.83;;
68449;SDS011;67758;39.572;2.652;2023-02-15T18:28:25;13.40;;;4.90;;
68449;SDS011;67758;39.572;2.652;2023-02-15T18:30:51;11.73;;;4.80;;
68449;SDS011;67758;39.572;2.652;2023-02-15T18:33:38;13.30;;;5.33;;
68449;SDS011;67758;39.572;2.652;2023-02-15T18:36:14;12.07;;;5.38;;
68449;SDS011;67758;39.572;2.652;2023-02-15T18:38:44;15.10;;;5.05;;